sensor_id;sensor_type;location;lat;lon;timestamp;temperature;humidity
74901;DHT22;63461;51.416;6.758;2023-02-04T00:00:04;8.70;99.90
74901;DHT22;63461;51.416;6.758;2023-02-04T00:02:32;8.70;99.90
74901;DHT22;63461;51.416;6.758;2023-02-04T00:04:58;8.80;99.90
74901;DHT22;63461;51.416;6.758;2023-02-04T00:07:23;8.70;99.90
74901;DHT22;63461;51.416;6.758;2023-02-04T00:09:49;8.80;99.90
74901;DHT22;63461;51.416;6.758;2023-02-04T00:12:15;8.70;99.90
74901;DHT22;63461;51.416;6.758;2023-02-04T00:14:42;8.70;99.90
74901;DHT22;63461;51.416;6.758;2023-02-04T00:17:08;8.70;99.90
74901;DHT22;63461;51.416;6.758;2023-02-04T00:19:36;8.70;99.90
74901;DHT22;63461;51.416;6.758;2023-02-04T00:22:02;8.80;99.90
74901;DHT22;63461;51.416;6.758;2023-02-04T00:24:29;8.70;99.90
74901;DHT22;63461;51.416;6.758;2023-02-04T00:26:55;8.70;99.90
74901;DHT22;63461;51.416;6.758;2023-02-04T00:29:21;8.70;99.90
74901;DHT22;63461;51.416;6.758;2023-02-04T00:31:47;8.70;99.90
74901;DHT22;63461;51.416;6.758;2023-02-04T00:34:13;8.70;99.90
74901;DHT22;63461;51.416;6.758;2023-02-04T00:36:38;8.70;99.90
74901;DHT22;63461;51.416;6.758;2023-02-04T00:39:05;8.70;99.90
74901;DHT22;63461;51.416;6.758;2023-02-04T00:41:31;8.70;99.90
74901;DHT22;63461;51.416;6.758;2023-02-04T00:43:57;8.70;99.90
74901;DHT22;63461;51.416;6.758;2023-02-04T00:46:23;8.60;99.90
74901;DHT22;63461;51.416;6.758;2023-02-04T00:48:48;8.70;99.90
74901;DHT22;63461;51.416;6.758;2023-02-04T00:51:15;8.70;99.90
74901;DHT22;63461;51.416;6.758;2023-02-04T00:53:41;8.70;99.90
74901;DHT22;63461;51.416;6.758;2023-02-04T00:56:07;8.70;99.90
74901;DHT22;63461;51.416;6.758;2023-02-04T00:58:33;8.70;99.90
74901;DHT22;63461;51.416;6.758;2023-02-04T01:00:58;8.60;99.90
74901;DHT22;63461;51.416;6.758;2023-02-04T01:03:24;8.60;99.90
74901;DHT22;63461;51.416;6.758;2023-02-04T01:05:50;8.70;99.90
74901;DHT22;63461;51.416;6.758;2023-02-04T01:08:16;8.70;99.90
74901;DHT22;63461;51.416;6.758;2023-02-04T01:10:42;8.70;99.90
74901;DHT22;63461;51.416;6.758;2023-02-04T01:13:07;8.70;99.90
74901;DHT22;63461;51.416;6.758;2023-02-04T01:15:34;8.70;99.90
74901;DHT22;63461;51.416;6.758;2023-02-04T01:18:00;8.70;99.90
74901;DHT22;63461;51.416;6.758;2023-02-04T01:20:26;8.70;99.90
74901;DHT22;63461;51.416;6.758;2023-02-04T01:22:51;8.60;99.90
74901;DHT22;63461;51.416;6.758;2023-02-04T01:25:18;8.60;99.90
74901;DHT22;63461;51.416;6.758;2023-02-04T01:27:44;8.60;99.90
74901;DHT22;63461;51.416;6.758;2023-02-04T01:30:12;8.60;99.90
74901;DHT22;63461;51.416;6.758;2023-02-04T01:32:38;8.60;99.90
74901;DHT22;63461;51.416;6.758;2023-02-04T01:35:04;8.60;99.90
74901;DHT22;63461;51.416;6.758;2023-02-04T01:37:31;8.60;99.90
74901;DHT22;63461;51.416;6.758;2023-02-04T01:39:57;8.60;99.90
74901;DHT22;63461;51.416;6.758;2023-02-04T01:42:23;8.70;99.90
74901;DHT22;63461;51.416;6.758;2023-02-04T01:44:49;8.70;99.90
74901;DHT22;63461;51.416;6.758;2023-02-04T01:47:15;8.70;99.90
74901;DHT22;63461;51.416;6.758;2023-02-04T01:49:41;8.70;99.90
74901;DHT22;63461;51.416;6.758;2023-02-04T01:52:09;8.60;99.90
74901;DHT22;63461;51.416;6.758;2023-02-04T01:54:35;8.60;99.90
74901;DHT22;63461;51.416;6.758;2023-02-04T01:57:01;8.60;99.90
74901;DHT22;63461;51.416;6.758;2023-02-04T01:59:28;8.60;99.90
74901;DHT22;63461;51.416;6.758;2023-02-04T02:01:54;8.60;99.90
74901;DHT22;63461;51.416;6.758;2023-02-04T02:04:31;8.60;99.90
74901;DHT22;63461;51.416;6.758;2023-02-04T02:07:02;8.60;99.90
74901;DHT22;63461;51.416;6.758;2023-02-04T02:09:29;8.60;99.90
74901;DHT22;63461;51.416;6.758;2023-02-04T02:11:56;8.60;99.90
74901;DHT22;63461;51.416;6.758;2023-02-04T02:14:24;8.60;99.90
74901;DHT22;63461;51.416;6.758;2023-02-04T02:16:50;8.60;99.90
74901;DHT22;63461;51.416;6.758;2023-02-04T02:19:21;8.60;99.90
74901;DHT22;63461;51.416;6.758;2023-02-04T02:22:15;8.60;99.90
74901;DHT22;63461;51.416;6.758;2023-02-04T02:24:42;8.60;99.90
74901;DHT22;63461;51.416;6.758;2023-02-04T02:27:09;8.50;99.90
74901;DHT22;63461;51.416;6.758;2023-02-04T02:29:37;8.50;99.90
74901;DHT22;63461;51.416;6.758;2023-02-04T02:32:05;8.50;99.90
74901;DHT22;63461;51.416;6.758;2023-02-04T02:34:32;8.60;99.90
74901;DHT22;63461;51.416;6.758;2023-02-04T02:36:58;8.60;99.90
74901;DHT22;63461;51.416;6.758;2023-02-04T02:39:25;8.50;99.90
74901;DHT22;63461;51.416;6.758;2023-02-04T02:41:51;8.60;99.90
74901;DHT22;63461;51.416;6.758;2023-02-04T02:44:18;8.60;99.90
74901;DHT22;63461;51.416;6.758;2023-02-04T02:46:44;8.50;99.90
74901;DHT22;63461;51.416;6.758;2023-02-04T02:49:14;8.60;99.90
74901;DHT22;63461;51.416;6.758;2023-02-04T02:51:41;8.50;99.90
74901;DHT22;63461;51.416;6.758;2023-02-04T02:54:23;8.50;99.90
74901;DHT22;63461;51.416;6.758;2023-02-04T02:56:53;8.50;99.90
74901;DHT22;63461;51.416;6.758;2023-02-04T02:59:22;8.50;99.90
74901;DHT22;63461;51.416;6.758;2023-02-04T03:01:52;8.50;99.90
74901;DHT22;63461;51.416;6.758;2023-02-04T03:04:19;8.40;99.90
74901;DHT22;63461;51.416;6.758;2023-02-04T03:06:45;8.50;99.90
74901;DHT22;63461;51.416;6.758;2023-02-04T03:09:12;8.50;99.90
74901;DHT22;63461;51.416;6.758;2023-02-04T03:11:38;8.50;99.90
74901;DHT22;63461;51.416;6.758;2023-02-04T03:14:04;8.40;99.90
74901;DHT22;63461;51.416;6.758;2023-02-04T03:16:32;8.40;99.90
74901;DHT22;63461;51.416;6.758;2023-02-04T03:18:59;8.50;99.90
74901;DHT22;63461;51.416;6.758;2023-02-04T03:21:26;8.40;99.90
74901;DHT22;63461;51.416;6.758;2023-02-04T03:23:52;8.40;99.90
74901;DHT22;63461;51.416;6.758;2023-02-04T03:26:23;8.40;99.90
74901;DHT22;63461;51.416;6.758;2023-02-04T03:28:49;8.40;99.90
74901;DHT22;63461;51.416;6.758;2023-02-04T03:31:14;8.40;99.90
74901;DHT22;63461;51.416;6.758;2023-02-04T03:33:40;8.40;99.90
74901;DHT22;63461;51.416;6.758;2023-02-04T03:36:07;8.40;99.90
74901;DHT22;63461;51.416;6.758;2023-02-04T03:38:33;8.40;99.90
74901;DHT22;63461;51.416;6.758;2023-02-04T03:41:00;8.30;99.90
74901;DHT22;63461;51.416;6.758;2023-02-04T03:43:26;8.30;99.90
74901;DHT22;63461;51.416;6.758;2023-02-04T03:45:51;8.40;99.90
74901;DHT22;63461;51.416;6.758;2023-02-04T03:48:17;8.30;99.90
74901;DHT22;63461;51.416;6.758;2023-02-04T03:50:43;8.30;99.90
74901;DHT22;63461;51.416;6.758;2023-02-04T03:53:09;8.30;99.90
74901;DHT22;63461;51.416;6.758;2023-02-04T03:55:35;8.30;99.90
74901;DHT22;63461;51.416;6.758;2023-02-04T03:58:02;8.30;99.90
74901;DHT22;63461;51.416;6.758;2023-02-04T04:00:27;8.30;99.90
74901;DHT22;63461;51.416;6.758;2023-02-04T04:02:54;8.30;99.90
74901;DHT22;63461;51.416;6.758;2023-02-04T04:05:20;8.30;99.90
74901;DHT22;63461;51.416;6.758;2023-02-04T04:07:45;8.20;99.90
74901;DHT22;63461;51.416;6.758;2023-02-04T04:10:11;8.20;99.90
74901;DHT22;63461;51.416;6.758;2023-02-04T04:12:37;8.20;99.90
74901;DHT22;63461;51.416;6.758;2023-02-04T04:15:03;8.20;99.90
74901;DHT22;63461;51.416;6.758;2023-02-04T04:17:29;8.10;99.90
74901;DHT22;63461;51.416;6.758;2023-02-04T04:19:55;8.20;99.90
74901;DHT22;63461;51.416;6.758;2023-02-04T04:22:21;8.20;99.90
74901;DHT22;63461;51.416;6.758;2023-02-04T04:24:47;8.20;99.90
74901;DHT22;63461;51.416;6.758;2023-02-04T04:27:12;8.10;99.90
74901;DHT22;63461;51.416;6.758;2023-02-04T04:29:38;8.20;99.90
74901;DHT22;63461;51.416;6.758;2023-02-04T04:32:04;8.20;99.90
74901;DHT22;63461;51.416;6.758;2023-02-04T04:34:30;8.10;99.90
74901;DHT22;63461;51.416;6.758;2023-02-04T04:36:56;8.20;99.90
74901;DHT22;63461;51.416;6.758;2023-02-04T04:39:22;8.10;99.90
74901;DHT22;63461;51.416;6.758;2023-02-04T04:41:47;8.10;99.90
74901;DHT22;63461;51.416;6.758;2023-02-04T04:44:13;8.10;99.90
74901;DHT22;63461;51.416;6.758;2023-02-04T04:46:39;8.10;99.90
74901;DHT22;63461;51.416;6.758;2023-02-04T04:49:05;8.10;99.90
74901;DHT22;63461;51.416;6.758;2023-02-04T04:51:31;8.10;99.90
74901;DHT22;63461;51.416;6.758;2023-02-04T04:53:57;8.00;99.90
74901;DHT22;63461;51.416;6.758;2023-02-04T04:56:23;8.00;99.90
74901;DHT22;63461;51.416;6.758;2023-02-04T04:58:49;8.00;99.90
74901;DHT22;63461;51.416;6.758;2023-02-04T05:01:15;7.90;99.90
74901;DHT22;63461;51.416;6.758;2023-02-04T05:03:41;8.00;99.90
74901;DHT22;63461;51.416;6.758;2023-02-04T05:06:06;8.00;99.90
74901;DHT22;63461;51.416;6.758;2023-02-04T05:08:33;8.00;99.90
74901;DHT22;63461;51.416;6.758;2023-02-04T05:11:01;8.00;99.90
74901;DHT22;63461;51.416;6.758;2023-02-04T05:13:27;8.10;99.90
74901;DHT22;63461;51.416;6.758;2023-02-04T05:15:53;8.00;99.90
74901;DHT22;63461;51.416;6.758;2023-02-04T05:18:19;8.00;99.90
74901;DHT22;63461;51.416;6.758;2023-02-04T05:20:44;8.00;99.90
74901;DHT22;63461;51.416;6.758;2023-02-04T05:23:10;7.90;99.90
74901;DHT22;63461;51.416;6.758;2023-02-04T05:25:36;8.00;99.90
74901;DHT22;63461;51.416;6.758;2023-02-04T05:28:02;8.00;99.90
74901;DHT22;63461;51.416;6.758;2023-02-04T05:30:28;7.90;99.90
74901;DHT22;63461;51.416;6.758;2023-02-04T05:32:54;7.90;99.90
74901;DHT22;63461;51.416;6.758;2023-02-04T05:35:20;8.00;99.90
74901;DHT22;63461;51.416;6.758;2023-02-04T05:37:46;8.00;99.90
74901;DHT22;63461;51.416;6.758;2023-02-04T05:40:12;8.00;99.90
74901;DHT22;63461;51.416;6.758;2023-02-04T05:42:37;8.00;99.90
74901;DHT22;63461;51.416;6.758;2023-02-04T05:45:03;8.00;99.90
74901;DHT22;63461;51.416;6.758;2023-02-04T05:47:29;8.00;99.90
74901;DHT22;63461;51.416;6.758;2023-02-04T05:49:55;8.00;99.90
74901;DHT22;63461;51.416;6.758;2023-02-04T05:52:21;7.90;99.90
74901;DHT22;63461;51.416;6.758;2023-02-04T05:54:46;7.90;99.90
74901;DHT22;63461;51.416;6.758;2023-02-04T05:57:13;7.90;99.90
74901;DHT22;63461;51.416;6.758;2023-02-04T05:59:38;7.90;99.90
74901;DHT22;63461;51.416;6.758;2023-02-04T06:02:04;7.90;99.90
74901;DHT22;63461;51.416;6.758;2023-02-04T06:04:30;7.90;99.90
74901;DHT22;63461;51.416;6.758;2023-02-04T06:06:56;7.90;99.90
74901;DHT22;63461;51.416;6.758;2023-02-04T06:09:21;7.90;99.90
74901;DHT22;63461;51.416;6.758;2023-02-04T06:11:47;7.90;99.90
74901;DHT22;63461;51.416;6.758;2023-02-04T06:14:13;7.90;99.90
74901;DHT22;63461;51.416;6.758;2023-02-04T06:16:38;8.00;99.90
74901;DHT22;63461;51.416;6.758;2023-02-04T06:19:04;7.90;99.90
74901;DHT22;63461;51.416;6.758;2023-02-04T06:21:30;8.00;99.90
74901;DHT22;63461;51.416;6.758;2023-02-04T06:23:56;7.90;99.90
74901;DHT22;63461;51.416;6.758;2023-02-04T06:26:21;8.00;99.90
74901;DHT22;63461;51.416;6.758;2023-02-04T06:28:47;8.00;99.90
74901;DHT22;63461;51.416;6.758;2023-02-04T06:31:13;7.90;99.90
74901;DHT22;63461;51.416;6.758;2023-02-04T06:33:38;7.90;99.90
74901;DHT22;63461;51.416;6.758;2023-02-04T06:36:04;7.90;99.90
74901;DHT22;63461;51.416;6.758;2023-02-04T06:38:30;7.90;99.90
74901;DHT22;63461;51.416;6.758;2023-02-04T06:40:56;7.90;99.90
74901;DHT22;63461;51.416;6.758;2023-02-04T06:43:22;7.90;99.90
74901;DHT22;63461;51.416;6.758;2023-02-04T06:45:50;8.00;99.90
74901;DHT22;63461;51.416;6.758;2023-02-04T06:48:16;8.00;99.90
74901;DHT22;63461;51.416;6.758;2023-02-04T06:50:42;8.00;99.90
74901;DHT22;63461;51.416;6.758;2023-02-04T06:53:08;8.00;99.90
74901;DHT22;63461;51.416;6.758;2023-02-04T06:55:34;8.00;99.90
74901;DHT22;63461;51.416;6.758;2023-02-04T06:57:59;7.90;99.90
74901;DHT22;63461;51.416;6.758;2023-02-04T07:00:25;8.00;99.90
74901;DHT22;63461;51.416;6.758;2023-02-04T07:02:51;8.00;99.90
74901;DHT22;63461;51.416;6.758;2023-02-04T07:05:17;8.00;99.90
74901;DHT22;63461;51.416;6.758;2023-02-04T07:07:43;8.00;99.90
74901;DHT22;63461;51.416;6.758;2023-02-04T07:10:09;8.00;99.90
74901;DHT22;63461;51.416;6.758;2023-02-04T07:12:35;8.00;99.90
74901;DHT22;63461;51.416;6.758;2023-02-04T07:15:00;7.90;99.90
74901;DHT22;63461;51.416;6.758;2023-02-04T07:17:26;8.00;99.90
74901;DHT22;63461;51.416;6.758;2023-02-04T07:19:52;7.90;99.90
74901;DHT22;63461;51.416;6.758;2023-02-04T07:22:18;7.90;99.90
74901;DHT22;63461;51.416;6.758;2023-02-04T07:24:43;7.90;99.90
74901;DHT22;63461;51.416;6.758;2023-02-04T07:27:09;7.90;99.90
74901;DHT22;63461;51.416;6.758;2023-02-04T07:29:35;7.90;99.90
74901;DHT22;63461;51.416;6.758;2023-02-04T07:32:01;7.90;99.90
74901;DHT22;63461;51.416;6.758;2023-02-04T07:34:27;7.90;99.90
74901;DHT22;63461;51.416;6.758;2023-02-04T07:36:52;7.90;99.90
74901;DHT22;63461;51.416;6.758;2023-02-04T07:39:18;8.00;99.90
74901;DHT22;63461;51.416;6.758;2023-02-04T07:41:44;7.90;99.90
74901;DHT22;63461;51.416;6.758;2023-02-04T07:44:11;8.00;99.90
74901;DHT22;63461;51.416;6.758;2023-02-04T07:46:37;7.90;99.90
74901;DHT22;63461;51.416;6.758;2023-02-04T07:49:03;8.00;99.90
74901;DHT22;63461;51.416;6.758;2023-02-04T07:51:29;8.00;99.90
74901;DHT22;63461;51.416;6.758;2023-02-04T07:53:55;8.00;99.90
74901;DHT22;63461;51.416;6.758;2023-02-04T07:56:21;8.10;99.90
74901;DHT22;63461;51.416;6.758;2023-02-04T07:58:47;8.00;99.90
74901;DHT22;63461;51.416;6.758;2023-02-04T08:01:13;8.00;99.90
74901;DHT22;63461;51.416;6.758;2023-02-04T08:03:39;8.10;99.90
74901;DHT22;63461;51.416;6.758;2023-02-04T08:06:05;8.10;99.90
74901;DHT22;63461;51.416;6.758;2023-02-04T08:08:31;8.10;99.90
74901;DHT22;63461;51.416;6.758;2023-02-04T08:10:56;8.10;99.90
74901;DHT22;63461;51.416;6.758;2023-02-04T08:13:22;8.20;99.90
74901;DHT22;63461;51.416;6.758;2023-02-04T08:15:50;8.10;99.90
74901;DHT22;63461;51.416;6.758;2023-02-04T08:18:16;8.10;99.90
74901;DHT22;63461;51.416;6.758;2023-02-04T08:20:42;8.10;99.90
74901;DHT22;63461;51.416;6.758;2023-02-04T08:23:07;8.10;99.90
74901;DHT22;63461;51.416;6.758;2023-02-04T08:25:33;8.10;99.90
74901;DHT22;63461;51.416;6.758;2023-02-04T08:28:00;8.10;99.90
74901;DHT22;63461;51.416;6.758;2023-02-04T08:30:26;8.20;99.90
74901;DHT22;63461;51.416;6.758;2023-02-04T08:32:51;8.20;99.90
74901;DHT22;63461;51.416;6.758;2023-02-04T08:35:17;8.20;99.90
74901;DHT22;63461;51.416;6.758;2023-02-04T08:37:43;8.20;99.90
74901;DHT22;63461;51.416;6.758;2023-02-04T08:40:09;8.30;99.90
74901;DHT22;63461;51.416;6.758;2023-02-04T08:42:35;8.30;99.90
74901;DHT22;63461;51.416;6.758;2023-02-04T08:45:01;8.30;99.90
74901;DHT22;63461;51.416;6.758;2023-02-04T08:47:28;8.30;99.90
74901;DHT22;63461;51.416;6.758;2023-02-04T08:49:54;8.30;99.90
74901;DHT22;63461;51.416;6.758;2023-02-04T08:52:20;8.40;99.90
74901;DHT22;63461;51.416;6.758;2023-02-04T08:54:46;8.30;99.90
74901;DHT22;63461;51.416;6.758;2023-02-04T08:57:11;8.40;99.90
74901;DHT22;63461;51.416;6.758;2023-02-04T08:59:37;8.30;99.90
74901;DHT22;63461;51.416;6.758;2023-02-04T09:02:03;8.40;99.90
74901;DHT22;63461;51.416;6.758;2023-02-04T09:04:29;8.40;99.90
74901;DHT22;63461;51.416;6.758;2023-02-04T09:06:54;8.50;99.90
74901;DHT22;63461;51.416;6.758;2023-02-04T09:09:20;8.50;99.90
74901;DHT22;63461;51.416;6.758;2023-02-04T09:11:46;8.50;99.90
74901;DHT22;63461;51.416;6.758;2023-02-04T09:14:12;8.50;99.90
74901;DHT22;63461;51.416;6.758;2023-02-04T09:16:38;8.60;99.90
74901;DHT22;63461;51.416;6.758;2023-02-04T09:19:04;8.60;99.90
74901;DHT22;63461;51.416;6.758;2023-02-04T09:21:30;8.60;99.90
74901;DHT22;63461;51.416;6.758;2023-02-04T09:23:56;8.70;99.90
74901;DHT22;63461;51.416;6.758;2023-02-04T09:26:22;8.70;99.90
74901;DHT22;63461;51.416;6.758;2023-02-04T09:28:48;8.70;99.90
74901;DHT22;63461;51.416;6.758;2023-02-04T09:31:14;8.80;99.90
74901;DHT22;63461;51.416;6.758;2023-02-04T09:33:40;8.80;99.90
74901;DHT22;63461;51.416;6.758;2023-02-04T09:36:06;8.80;99.90
74901;DHT22;63461;51.416;6.758;2023-02-04T09:38:32;8.90;99.90
74901;DHT22;63461;51.416;6.758;2023-02-04T09:41:09;8.80;99.90
74901;DHT22;63461;51.416;6.758;2023-02-04T09:43:39;8.90;99.90
74901;DHT22;63461;51.416;6.758;2023-02-04T09:46:13;8.90;99.90
74901;DHT22;63461;51.416;6.758;2023-02-04T09:48:41;8.90;99.90
74901;DHT22;63461;51.416;6.758;2023-02-04T09:51:07;8.90;99.90
74901;DHT22;63461;51.416;6.758;2023-02-04T09:53:34;8.90;99.90
74901;DHT22;63461;51.416;6.758;2023-02-04T09:56:01;9.00;99.90
74901;DHT22;63461;51.416;6.758;2023-02-04T09:58:30;9.00;99.90
74901;DHT22;63461;51.416;6.758;2023-02-04T10:01:26;9.10;99.90
74901;DHT22;63461;51.416;6.758;2023-02-04T10:03:54;9.10;99.90
74901;DHT22;63461;51.416;6.758;2023-02-04T10:06:23;9.20;99.90
74901;DHT22;63461;51.416;6.758;2023-02-04T10:08:50;9.10;99.90
74901;DHT22;63461;51.416;6.758;2023-02-04T10:11:18;9.20;99.90
74901;DHT22;63461;51.416;6.758;2023-02-04T10:13:46;9.30;99.90
74901;DHT22;63461;51.416;6.758;2023-02-04T10:16:34;9.20;99.90
74901;DHT22;63461;51.416;6.758;2023-02-04T10:19:06;9.20;99.90
74901;DHT22;63461;51.416;6.758;2023-02-04T10:21:34;9.20;99.90
74901;DHT22;63461;51.416;6.758;2023-02-04T10:24:03;9.20;99.90
74901;DHT22;63461;51.416;6.758;2023-02-04T10:26:31;9.20;99.90
74901;DHT22;63461;51.416;6.758;2023-02-04T10:29:03;9.20;99.90
74901;DHT22;63461;51.416;6.758;2023-02-04T10:31:37;9.20;99.90
74901;DHT22;63461;51.416;6.758;2023-02-04T10:36:49;9.30;99.90
74901;DHT22;63461;51.416;6.758;2023-02-04T10:39:23;9.40;99.90
74901;DHT22;63461;51.416;6.758;2023-02-04T10:41:58;9.40;99.90
74901;DHT22;63461;51.416;6.758;2023-02-04T10:46:58;9.40;99.90
74901;DHT22;63461;51.416;6.758;2023-02-04T10:49:24;9.30;99.90
74901;DHT22;63461;51.416;6.758;2023-02-04T10:51:51;9.40;99.90
74901;DHT22;63461;51.416;6.758;2023-02-04T10:54:19;9.50;99.90
74901;DHT22;63461;51.416;6.758;2023-02-04T10:57:17;9.60;99.90
74901;DHT22;63461;51.416;6.758;2023-02-04T10:59:45;9.60;99.90
74901;DHT22;63461;51.416;6.758;2023-02-04T11:02:26;9.70;99.90
74901;DHT22;63461;51.416;6.758;2023-02-04T11:04:55;9.60;99.90
74901;DHT22;63461;51.416;6.758;2023-02-04T11:07:22;9.70;99.90
74901;DHT22;63461;51.416;6.758;2023-02-04T11:09:48;9.70;99.90
74901;DHT22;63461;51.416;6.758;2023-02-04T11:12:21;9.60;99.90
74901;DHT22;63461;51.416;6.758;2023-02-04T11:14:55;9.60;99.90
74901;DHT22;63461;51.416;6.758;2023-02-04T11:17:28;9.70;99.90
74901;DHT22;63461;51.416;6.758;2023-02-04T11:19:56;9.80;99.90
74901;DHT22;63461;51.416;6.758;2023-02-04T11:22:35;9.70;99.90
74901;DHT22;63461;51.416;6.758;2023-02-04T11:25:01;9.70;99.90
74901;DHT22;63461;51.416;6.758;2023-02-04T11:27:39;9.60;99.90
74901;DHT22;63461;51.416;6.758;2023-02-04T11:30:21;9.60;99.90
74901;DHT22;63461;51.416;6.758;2023-02-04T11:33:04;9.60;99.90
74901;DHT22;63461;51.416;6.758;2023-02-04T11:35:31;9.60;99.90
74901;DHT22;63461;51.416;6.758;2023-02-04T11:37:57;9.70;99.90
74901;DHT22;63461;51.416;6.758;2023-02-04T11:43:14;9.60;99.90
74901;DHT22;63461;51.416;6.758;2023-02-04T11:45:41;9.70;99.90
74901;DHT22;63461;51.416;6.758;2023-02-04T11:48:16;9.80;99.90
74901;DHT22;63461;51.416;6.758;2023-02-04T11:51:02;9.70;99.90
74901;DHT22;63461;51.416;6.758;2023-02-04T11:53:30;9.80;99.90
74901;DHT22;63461;51.416;6.758;2023-02-04T11:55:57;9.90;99.90
74901;DHT22;63461;51.416;6.758;2023-02-04T11:58:23;9.90;99.90
74901;DHT22;63461;51.416;6.758;2023-02-04T12:00:51;10.10;99.90
74901;DHT22;63461;51.416;6.758;2023-02-04T12:03:26;10.00;99.90
74901;DHT22;63461;51.416;6.758;2023-02-04T12:05:52;10.00;99.90
74901;DHT22;63461;51.416;6.758;2023-02-04T12:13:25;9.90;99.90
74901;DHT22;63461;51.416;6.758;2023-02-04T12:15:56;10.00;99.90
74901;DHT22;63461;51.416;6.758;2023-02-04T12:18:23;10.10;99.90
74901;DHT22;63461;51.416;6.758;2023-02-04T12:20:48;10.00;99.90
74901;DHT22;63461;51.416;6.758;2023-02-04T12:23:14;10.10;99.90
74901;DHT22;63461;51.416;6.758;2023-02-04T12:25:40;10.10;99.90
74901;DHT22;63461;51.416;6.758;2023-02-04T12:28:05;10.10;99.90
74901;DHT22;63461;51.416;6.758;2023-02-04T12:30:31;10.10;99.90
74901;DHT22;63461;51.416;6.758;2023-02-04T12:32:57;10.20;99.90
74901;DHT22;63461;51.416;6.758;2023-02-04T12:35:23;10.20;99.90
74901;DHT22;63461;51.416;6.758;2023-02-04T12:37:48;10.10;99.90
74901;DHT22;63461;51.416;6.758;2023-02-04T12:40:15;10.10;99.90
74901;DHT22;63461;51.416;6.758;2023-02-04T12:42:42;10.20;99.90
74901;DHT22;63461;51.416;6.758;2023-02-04T12:45:09;10.10;99.90
74901;DHT22;63461;51.416;6.758;2023-02-04T12:47:36;10.10;99.90
74901;DHT22;63461;51.416;6.758;2023-02-04T12:50:04;10.10;99.90
74901;DHT22;63461;51.416;6.758;2023-02-04T12:52:30;10.10;99.90
74901;DHT22;63461;51.416;6.758;2023-02-04T12:54:56;10.10;99.90
74901;DHT22;63461;51.416;6.758;2023-02-04T12:57:22;10.20;99.90
74901;DHT22;63461;51.416;6.758;2023-02-04T12:59:48;10.20;99.90
74901;DHT22;63461;51.416;6.758;2023-02-04T13:02:14;10.10;99.90
74901;DHT22;63461;51.416;6.758;2023-02-04T13:04:40;10.10;99.90
74901;DHT22;63461;51.416;6.758;2023-02-04T13:07:07;10.20;99.90
74901;DHT22;63461;51.416;6.758;2023-02-04T13:09:34;10.20;99.90
74901;DHT22;63461;51.416;6.758;2023-02-04T13:12:00;10.20;99.90
74901;DHT22;63461;51.416;6.758;2023-02-04T13:14:26;10.30;99.90
74901;DHT22;63461;51.416;6.758;2023-02-04T13:16:51;10.30;99.90
74901;DHT22;63461;51.416;6.758;2023-02-04T13:19:17;10.30;99.90
74901;DHT22;63461;51.416;6.758;2023-02-04T13:21:43;10.20;99.90
74901;DHT22;63461;51.416;6.758;2023-02-04T13:24:09;10.10;99.90
74901;DHT22;63461;51.416;6.758;2023-02-04T13:26:35;10.20;99.90
74901;DHT22;63461;51.416;6.758;2023-02-04T13:29:00;10.20;99.90
74901;DHT22;63461;51.416;6.758;2023-02-04T13:31:26;10.10;99.90
74901;DHT22;63461;51.416;6.758;2023-02-04T13:33:52;10.00;99.90
74901;DHT22;63461;51.416;6.758;2023-02-04T13:36:18;10.10;99.90
74901;DHT22;63461;51.416;6.758;2023-02-04T13:38:43;10.10;99.90
74901;DHT22;63461;51.416;6.758;2023-02-04T13:41:09;10.00;99.90
74901;DHT22;63461;51.416;6.758;2023-02-04T13:43:35;10.10;99.90
74901;DHT22;63461;51.416;6.758;2023-02-04T13:46:01;10.00;99.90
74901;DHT22;63461;51.416;6.758;2023-02-04T13:48:28;10.10;99.90
74901;DHT22;63461;51.416;6.758;2023-02-04T13:50:54;10.00;99.90
74901;DHT22;63461;51.416;6.758;2023-02-04T13:53:20;10.00;99.90
74901;DHT22;63461;51.416;6.758;2023-02-04T13:55:46;9.90;99.90
74901;DHT22;63461;51.416;6.758;2023-02-04T13:58:12;10.00;99.90
74901;DHT22;63461;51.416;6.758;2023-02-04T14:00:37;10.00;99.90
74901;DHT22;63461;51.416;6.758;2023-02-04T14:03:03;10.00;99.90
74901;DHT22;63461;51.416;6.758;2023-02-04T14:05:29;10.00;99.90
74901;DHT22;63461;51.416;6.758;2023-02-04T14:07:55;10.00;99.90
74901;DHT22;63461;51.416;6.758;2023-02-04T14:10:20;10.00;99.90
74901;DHT22;63461;51.416;6.758;2023-02-04T14:12:50;10.00;99.90
74901;DHT22;63461;51.416;6.758;2023-02-04T14:15:16;10.00;99.90
74901;DHT22;63461;51.416;6.758;2023-02-04T14:17:42;10.10;99.90
74901;DHT22;63461;51.416;6.758;2023-02-04T14:20:08;10.10;99.90
74901;DHT22;63461;51.416;6.758;2023-02-04T14:22:34;10.10;99.90
74901;DHT22;63461;51.416;6.758;2023-02-04T14:25:00;10.10;99.90
74901;DHT22;63461;51.416;6.758;2023-02-04T14:27:26;10.20;99.90
74901;DHT22;63461;51.416;6.758;2023-02-04T14:29:52;10.20;99.90
74901;DHT22;63461;51.416;6.758;2023-02-04T14:32:18;10.30;99.90
74901;DHT22;63461;51.416;6.758;2023-02-04T14:34:45;10.20;99.90
74901;DHT22;63461;51.416;6.758;2023-02-04T14:37:11;10.20;99.90
74901;DHT22;63461;51.416;6.758;2023-02-04T14:39:37;10.20;99.90
74901;DHT22;63461;51.416;6.758;2023-02-04T14:42:03;10.20;99.90
74901;DHT22;63461;51.416;6.758;2023-02-04T14:44:30;10.10;99.90
74901;DHT22;63461;51.416;6.758;2023-02-04T14:46:56;10.10;99.90
74901;DHT22;63461;51.416;6.758;2023-02-04T14:49:22;10.10;99.90
74901;DHT22;63461;51.416;6.758;2023-02-04T14:51:48;10.10;99.90
74901;DHT22;63461;51.416;6.758;2023-02-04T14:54:13;10.10;99.90
74901;DHT22;63461;51.416;6.758;2023-02-04T14:56:41;10.10;99.90
74901;DHT22;63461;51.416;6.758;2023-02-04T14:59:06;10.10;99.90
74901;DHT22;63461;51.416;6.758;2023-02-04T15:01:32;10.10;99.90
74901;DHT22;63461;51.416;6.758;2023-02-04T15:03:58;9.90;99.90
74901;DHT22;63461;51.416;6.758;2023-02-04T15:06:24;9.90;99.90
74901;DHT22;63461;51.416;6.758;2023-02-04T15:08:50;9.90;99.90
74901;DHT22;63461;51.416;6.758;2023-02-04T15:11:16;10.00;99.90
74901;DHT22;63461;51.416;6.758;2023-02-04T15:13:41;9.90;99.90
74901;DHT22;63461;51.416;6.758;2023-02-04T15:16:07;9.90;99.90
74901;DHT22;63461;51.416;6.758;2023-02-04T15:18:33;9.90;99.90
74901;DHT22;63461;51.416;6.758;2023-02-04T15:20:59;9.80;99.90
74901;DHT22;63461;51.416;6.758;2023-02-04T15:23:24;9.80;99.90
74901;DHT22;63461;51.416;6.758;2023-02-04T15:25:50;9.70;99.90
74901;DHT22;63461;51.416;6.758;2023-02-04T15:28:16;9.70;99.90
74901;DHT22;63461;51.416;6.758;2023-02-04T15:30:42;9.70;99.90
74901;DHT22;63461;51.416;6.758;2023-02-04T15:33:08;9.60;99.90
74901;DHT22;63461;51.416;6.758;2023-02-04T15:35:34;9.60;99.90
74901;DHT22;63461;51.416;6.758;2023-02-04T15:37:59;9.60;99.90
74901;DHT22;63461;51.416;6.758;2023-02-04T15:40:25;9.50;99.90
74901;DHT22;63461;51.416;6.758;2023-02-04T15:42:54;9.50;99.90
74901;DHT22;63461;51.416;6.758;2023-02-04T15:45:20;9.50;99.90
74901;DHT22;63461;51.416;6.758;2023-02-04T15:47:46;9.50;99.90
74901;DHT22;63461;51.416;6.758;2023-02-04T15:50:11;9.40;99.90
74901;DHT22;63461;51.416;6.758;2023-02-04T15:52:39;9.40;99.90